sensor_id;sensor_type;location;lat;lon;timestamp;P1;durP1;ratioP1;P2;durP2;ratioP2
39502;SDS011;26970;49.900;10.774;2023-06-10T00:00:50;9.20;;;7.50;;
39502;SDS011;26970;49.900;10.774;2023-06-10T00:03:16;11.52;;;7.15;;
39502;SDS011;26970;49.900;10.774;2023-06-10T00:05:44;11.80;;;7.35;;
39502;SDS011;26970;49.900;10.774;2023-06-10T00:08:10;10.15;;;8.10;;
39502;SDS011;26970;49.900;10.774;2023-06-10T00:10:37;9.10;;;7.13;;
39502;SDS011;26970;49.900;10.774;2023-06-10T00:13:06;10.52;;;7.22;;
39502;SDS011;26970;49.900;10.774;2023-06-10T00:15:36;7.88;;;6.95;;
39502;SDS011;26970;49.900;10.774;2023-06-10T00:18:04;11.18;;;7.60;;
39502;SDS011;26970;49.900;10.774;2023-06-10T00:20:30;12.07;;;7.78;;
39502;SDS011;26970;49.900;10.774;2023-06-10T00:23:00;8.10;;;7.13;;
39502;SDS011;26970;49.900;10.774;2023-06-10T00:25:31;9.55;;;7.03;;
39502;SDS011;26970;49.900;10.774;2023-06-10T00:27:58;9.93;;;7.15;;
39502;SDS011;26970;49.900;10.774;2023-06-10T00:30:23;11.07;;;7.63;;
39502;SDS011;26970;49.900;10.774;2023-06-10T00:32:49;9.63;;;7.45;;
39502;SDS011;26970;49.900;10.774;2023-06-10T00:35:17;11.80;;;8.27;;
39502;SDS011;26970;49.900;10.774;2023-06-10T00:37:45;8.50;;;6.90;;
39502;SDS011;26970;49.900;10.774;2023-06-10T00:40:11;9.93;;;7.65;;
39502;SDS011;26970;49.900;10.774;2023-06-10T00:42:53;8.27;;;6.63;;
39502;SDS011;26970;49.900;10.774;2023-06-10T00:45:18;8.52;;;6.72;;
39502;SDS011;26970;49.900;10.774;2023-06-10T00:47:44;8.82;;;7.72;;
39502;SDS011;26970;49.900;10.774;2023-06-10T00:50:10;8.55;;;6.97;;
39502;SDS011;26970;49.900;10.774;2023-06-10T00:52:36;10.25;;;7.25;;
39502;SDS011;26970;49.900;10.774;2023-06-10T00:55:02;12.35;;;6.88;;
39502;SDS011;26970;49.900;10.774;2023-06-10T00:57:28;10.18;;;7.40;;
39502;SDS011;26970;49.900;10.774;2023-06-10T00:59:54;11.88;;;8.15;;
39502;SDS011;26970;49.900;10.774;2023-06-10T01:02:19;10.40;;;7.72;;
39502;SDS011;26970;49.900;10.774;2023-06-10T01:04:46;9.30;;;7.15;;
39502;SDS011;26970;49.900;10.774;2023-06-10T01:07:21;11.00;;;7.40;;
39502;SDS011;26970;49.900;10.774;2023-06-10T01:10:15;11.45;;;7.35;;
39502;SDS011;26970;49.900;10.774;2023-06-10T01:13:01;9.50;;;7.28;;
39502;SDS011;26970;49.900;10.774;2023-06-10T01:15:31;10.23;;;7.25;;
39502;SDS011;26970;49.900;10.774;2023-06-10T01:17:57;9.90;;;8.13;;
39502;SDS011;26970;49.900;10.774;2023-06-10T01:20:25;10.43;;;7.82;;
39502;SDS011;26970;49.900;10.774;2023-06-10T01:22:58;8.80;;;7.30;;
39502;SDS011;26970;49.900;10.774;2023-06-10T01:25:25;8.60;;;7.32;;
39502;SDS011;26970;49.900;10.774;2023-06-10T01:28:02;10.68;;;8.48;;
39502;SDS011;26970;49.900;10.774;2023-06-10T01:30:32;10.77;;;8.32;;
39502;SDS011;26970;49.900;10.774;2023-06-10T01:33:14;10.23;;;8.75;;
39502;SDS011;26970;49.900;10.774;2023-06-10T01:35:43;10.35;;;8.35;;
39502;SDS011;26970;49.900;10.774;2023-06-10T01:38:12;12.50;;;8.68;;
39502;SDS011;26970;49.900;10.774;2023-06-10T01:40:42;12.85;;;8.43;;
39502;SDS011;26970;49.900;10.774;2023-06-10T01:43:08;10.27;;;8.32;;
39502;SDS011;26970;49.900;10.774;2023-06-10T01:45:33;12.18;;;8.50;;
39502;SDS011;26970;49.900;10.774;2023-06-10T01:47:59;11.73;;;8.65;;
39502;SDS011;26970;49.900;10.774;2023-06-10T01:50:25;10.00;;;8.68;;
39502;SDS011;26970;49.900;10.774;2023-06-10T01:52:50;11.48;;;8.52;;
39502;SDS011;26970;49.900;10.774;2023-06-10T01:55:16;10.57;;;8.40;;
39502;SDS011;26970;49.900;10.774;2023-06-10T01:57:42;11.75;;;9.05;;
39502;SDS011;26970;49.900;10.774;2023-06-10T02:00:07;10.55;;;7.72;;
39502;SDS011;26970;49.900;10.774;2023-06-10T02:02:33;10.23;;;8.18;;
39502;SDS011;26970;49.900;10.774;2023-06-10T02:04:59;10.90;;;7.75;;
39502;SDS011;26970;49.900;10.774;2023-06-10T02:07:25;9.80;;;7.90;;
39502;SDS011;26970;49.900;10.774;2023-06-10T02:09:50;9.95;;;8.07;;
39502;SDS011;26970;49.900;10.774;2023-06-10T02:12:16;9.95;;;8.35;;
39502;SDS011;26970;49.900;10.774;2023-06-10T02:14:42;9.77;;;7.97;;
39502;SDS011;26970;49.900;10.774;2023-06-10T02:17:07;11.40;;;8.18;;
39502;SDS011;26970;49.900;10.774;2023-06-10T02:19:37;11.43;;;9.23;;
39502;SDS011;26970;49.900;10.774;2023-06-10T02:22:07;12.40;;;7.72;;
39502;SDS011;26970;49.900;10.774;2023-06-10T02:24:33;9.93;;;7.72;;
39502;SDS011;26970;49.900;10.774;2023-06-10T02:26:58;10.60;;;8.02;;
39502;SDS011;26970;49.900;10.774;2023-06-10T02:29:25;8.93;;;7.90;;
39502;SDS011;26970;49.900;10.774;2023-06-10T02:31:51;11.68;;;8.10;;
39502;SDS011;26970;49.900;10.774;2023-06-10T02:34:17;10.15;;;8.00;;
39502;SDS011;26970;49.900;10.774;2023-06-10T02:36:43;10.93;;;8.65;;
39502;SDS011;26970;49.900;10.774;2023-06-10T02:39:09;12.68;;;8.40;;
39502;SDS011;26970;49.900;10.774;2023-06-10T02:41:34;9.90;;;8.63;;
39502;SDS011;26970;49.900;10.774;2023-06-10T02:44:00;10.27;;;8.43;;
39502;SDS011;26970;49.900;10.774;2023-06-10T02:46:26;13.10;;;8.80;;
39502;SDS011;26970;49.900;10.774;2023-06-10T02:48:53;10.63;;;8.68;;
39502;SDS011;26970;49.900;10.774;2023-06-10T02:51:19;12.27;;;9.32;;
39502;SDS011;26970;49.900;10.774;2023-06-10T02:53:46;12.90;;;8.27;;
39502;SDS011;26970;49.900;10.774;2023-06-10T02:56:11;12.05;;;8.30;;
39502;SDS011;26970;49.900;10.774;2023-06-10T02:58:38;11.95;;;8.15;;
39502;SDS011;26970;49.900;10.774;2023-06-10T03:01:04;10.98;;;8.07;;
39502;SDS011;26970;49.900;10.774;2023-06-10T03:03:30;9.13;;;7.80;;
39502;SDS011;26970;49.900;10.774;2023-06-10T03:05:58;11.73;;;8.45;;
39502;SDS011;26970;49.900;10.774;2023-06-10T03:08:24;11.57;;;8.27;;
39502;SDS011;26970;49.900;10.774;2023-06-10T03:10:50;11.95;;;8.25;;
39502;SDS011;26970;49.900;10.774;2023-06-10T03:13:15;11.18;;;8.32;;
39502;SDS011;26970;49.900;10.774;2023-06-10T03:15:41;10.68;;;8.65;;
39502;SDS011;26970;49.900;10.774;2023-06-10T03:18:07;10.80;;;8.90;;
39502;SDS011;26970;49.900;10.774;2023-06-10T03:20:33;12.98;;;8.88;;
39502;SDS011;26970;49.900;10.774;2023-06-10T03:23:02;10.50;;;8.10;;
39502;SDS011;26970;49.900;10.774;2023-06-10T03:25:27;11.57;;;7.93;;
39502;SDS011;26970;49.900;10.774;2023-06-10T03:30:47;18.08;;;8.30;;
39502;SDS011;26970;49.900;10.774;2023-06-10T03:33:13;11.52;;;7.80;;
39502;SDS011;26970;49.900;10.774;2023-06-10T03:35:41;11.88;;;8.95;;
39502;SDS011;26970;49.900;10.774;2023-06-10T03:38:07;12.45;;;8.45;;
39502;SDS011;26970;49.900;10.774;2023-06-10T03:40:32;12.45;;;8.38;;
39502;SDS011;26970;49.900;10.774;2023-06-10T03:43:01;11.45;;;8.43;;
39502;SDS011;26970;49.900;10.774;2023-06-10T03:45:26;10.18;;;8.10;;
39502;SDS011;26970;49.900;10.774;2023-06-10T03:47:53;9.85;;;7.60;;
39502;SDS011;26970;49.900;10.774;2023-06-10T03:50:22;12.63;;;8.57;;
39502;SDS011;26970;49.900;10.774;2023-06-10T03:52:51;11.48;;;8.38;;
39502;SDS011;26970;49.900;10.774;2023-06-10T03:55:17;10.45;;;7.93;;
39502;SDS011;26970;49.900;10.774;2023-06-10T03:57:52;13.90;;;8.02;;
39502;SDS011;26970;49.900;10.774;2023-06-10T04:00:18;9.15;;;7.32;;
39502;SDS011;26970;49.900;10.774;2023-06-10T04:02:46;12.23;;;8.10;;
39502;SDS011;26970;49.900;10.774;2023-06-10T04:05:12;12.52;;;7.53;;
39502;SDS011;26970;49.900;10.774;2023-06-10T04:07:39;12.88;;;8.43;;
39502;SDS011;26970;49.900;10.774;2023-06-10T04:10:06;11.85;;;8.90;;
39502;SDS011;26970;49.900;10.774;2023-06-10T04:12:32;12.05;;;8.70;;
39502;SDS011;26970;49.900;10.774;2023-06-10T04:15:04;13.07;;;8.25;;
39502;SDS011;26970;49.900;10.774;2023-06-10T04:17:30;10.00;;;8.35;;
39502;SDS011;26970;49.900;10.774;2023-06-10T04:20:05;10.38;;;8.27;;
39502;SDS011;26970;49.900;10.774;2023-06-10T04:22:32;9.60;;;7.93;;
39502;SDS011;26970;49.900;10.774;2023-06-10T04:25:01;12.88;;;7.72;;
39502;SDS011;26970;49.900;10.774;2023-06-10T04:27:27;10.52;;;8.20;;
39502;SDS011;26970;49.900;10.774;2023-06-10T04:29:54;9.35;;;7.65;;
39502;SDS011;26970;49.900;10.774;2023-06-10T04:32:19;8.80;;;7.50;;
39502;SDS011;26970;49.900;10.774;2023-06-10T04:34:45;10.30;;;7.93;;
39502;SDS011;26970;49.900;10.774;2023-06-10T04:37:19;9.50;;;8.20;;
39502;SDS011;26970;49.900;10.774;2023-06-10T04:39:50;11.93;;;8.15;;
39502;SDS011;26970;49.900;10.774;2023-06-10T04:42:16;10.35;;;7.55;;
39502;SDS011;26970;49.900;10.774;2023-06-10T04:44:42;9.68;;;8.10;;
39502;SDS011;26970;49.900;10.774;2023-06-10T04:47:08;9.25;;;7.90;;
39502;SDS011;26970;49.900;10.774;2023-06-10T04:49:39;10.63;;;7.80;;
39502;SDS011;26970;49.900;10.774;2023-06-10T04:52:04;11.40;;;7.88;;
39502;SDS011;26970;49.900;10.774;2023-06-10T04:54:30;12.63;;;7.68;;
39502;SDS011;26970;49.900;10.774;2023-06-10T04:56:57;9.30;;;7.25;;
39502;SDS011;26970;49.900;10.774;2023-06-10T04:59:23;9.68;;;8.18;;
39502;SDS011;26970;49.900;10.774;2023-06-10T05:01:49;11.63;;;7.93;;
39502;SDS011;26970;49.900;10.774;2023-06-10T05:04:14;12.70;;;8.65;;
39502;SDS011;26970;49.900;10.774;2023-06-10T05:06:46;11.43;;;8.70;;
39502;SDS011;26970;49.900;10.774;2023-06-10T05:09:23;9.57;;;8.13;;
39502;SDS011;26970;49.900;10.774;2023-06-10T05:12:10;10.63;;;8.45;;
39502;SDS011;26970;49.900;10.774;2023-06-10T05:14:35;12.30;;;8.20;;
39502;SDS011;26970;49.900;10.774;2023-06-10T05:17:03;10.70;;;8.60;;
39502;SDS011;26970;49.900;10.774;2023-06-10T05:19:31;12.07;;;8.15;;
39502;SDS011;26970;49.900;10.774;2023-06-10T05:21:57;9.40;;;7.85;;
39502;SDS011;26970;49.900;10.774;2023-06-10T05:24:22;12.98;;;8.43;;
39502;SDS011;26970;49.900;10.774;2023-06-10T05:26:48;11.50;;;8.40;;
39502;SDS011;26970;49.900;10.774;2023-06-10T05:29:14;9.40;;;7.90;;
39502;SDS011;26970;49.900;10.774;2023-06-10T05:31:40;9.02;;;7.75;;
39502;SDS011;26970;49.900;10.774;2023-06-10T05:34:06;11.60;;;8.40;;
39502;SDS011;26970;49.900;10.774;2023-06-10T05:36:32;13.57;;;8.90;;
39502;SDS011;26970;49.900;10.774;2023-06-10T05:38:57;9.95;;;8.10;;
39502;SDS011;26970;49.900;10.774;2023-06-10T05:41:23;13.45;;;8.52;;
39502;SDS011;26970;49.900;10.774;2023-06-10T05:43:48;10.80;;;8.23;;
39502;SDS011;26970;49.900;10.774;2023-06-10T05:46:17;11.10;;;8.65;;
39502;SDS011;26970;49.900;10.774;2023-06-10T05:48:42;10.60;;;7.38;;
39502;SDS011;26970;49.900;10.774;2023-06-10T05:51:09;10.82;;;8.10;;
39502;SDS011;26970;49.900;10.774;2023-06-10T05:53:35;10.73;;;8.85;;
39502;SDS011;26970;49.900;10.774;2023-06-10T05:56:01;10.93;;;8.15;;
39502;SDS011;26970;49.900;10.774;2023-06-10T05:58:26;15.23;;;10.48;;
39502;SDS011;26970;49.900;10.774;2023-06-10T06:00:52;14.50;;;8.88;;
39502;SDS011;26970;49.900;10.774;2023-06-10T06:03:21;11.77;;;7.78;;
39502;SDS011;26970;49.900;10.774;2023-06-10T06:05:49;10.48;;;7.85;;
39502;SDS011;26970;49.900;10.774;2023-06-10T06:08:15;12.25;;;8.88;;
39502;SDS011;26970;49.900;10.774;2023-06-10T06:10:45;10.43;;;8.68;;
39502;SDS011;26970;49.900;10.774;2023-06-10T06:13:12;11.18;;;8.15;;
39502;SDS011;26970;49.900;10.774;2023-06-10T06:15:38;9.82;;;8.55;;
39502;SDS011;26970;49.900;10.774;2023-06-10T06:18:04;10.77;;;8.82;;
39502;SDS011;26970;49.900;10.774;2023-06-10T06:20:29;10.88;;;8.15;;
39502;SDS011;26970;49.900;10.774;2023-06-10T06:22:55;12.05;;;8.70;;
39502;SDS011;26970;49.900;10.774;2023-06-10T06:25:20;11.35;;;8.43;;
39502;SDS011;26970;49.900;10.774;2023-06-10T06:27:46;9.75;;;8.20;;
39502;SDS011;26970;49.900;10.774;2023-06-10T06:30:12;13.38;;;8.93;;
39502;SDS011;26970;49.900;10.774;2023-06-10T06:32:38;13.27;;;8.60;;
39502;SDS011;26970;49.900;10.774;2023-06-10T06:35:03;11.45;;;9.00;;
39502;SDS011;26970;49.900;10.774;2023-06-10T06:37:32;11.00;;;8.32;;
39502;SDS011;26970;49.900;10.774;2023-06-10T06:39:58;11.63;;;8.75;;
39502;SDS011;26970;49.900;10.774;2023-06-10T06:42:23;11.00;;;8.25;;
39502;SDS011;26970;49.900;10.774;2023-06-10T06:44:49;11.18;;;8.50;;
39502;SDS011;26970;49.900;10.774;2023-06-10T06:47:15;12.50;;;7.63;;
39502;SDS011;26970;49.900;10.774;2023-06-10T06:49:45;12.50;;;8.40;;
39502;SDS011;26970;49.900;10.774;2023-06-10T06:52:11;13.70;;;8.75;;
39502;SDS011;26970;49.900;10.774;2023-06-10T06:54:37;11.25;;;8.25;;
39502;SDS011;26970;49.900;10.774;2023-06-10T06:57:02;9.82;;;7.93;;
39502;SDS011;26970;49.900;10.774;2023-06-10T06:59:28;11.35;;;8.00;;
39502;SDS011;26970;49.900;10.774;2023-06-10T07:01:54;11.38;;;7.47;;
39502;SDS011;26970;49.900;10.774;2023-06-10T07:04:20;9.57;;;7.97;;
39502;SDS011;26970;49.900;10.774;2023-06-10T07:06:47;10.63;;;8.68;;
39502;SDS011;26970;49.900;10.774;2023-06-10T07:09:13;11.32;;;7.78;;
39502;SDS011;26970;49.900;10.774;2023-06-10T07:11:39;10.52;;;7.82;;
39502;SDS011;26970;49.900;10.774;2023-06-10T07:14:04;7.90;;;6.22;;
39502;SDS011;26970;49.900;10.774;2023-06-10T07:16:30;9.60;;;7.63;;
39502;SDS011;26970;49.900;10.774;2023-06-10T07:18:55;10.27;;;7.20;;
39502;SDS011;26970;49.900;10.774;2023-06-10T07:21:21;9.27;;;6.97;;
39502;SDS011;26970;49.900;10.774;2023-06-10T07:23:48;9.18;;;7.22;;
39502;SDS011;26970;49.900;10.774;2023-06-10T07:26:14;11.45;;;7.63;;
39502;SDS011;26970;49.900;10.774;2023-06-10T07:28:40;13.63;;;7.60;;
39502;SDS011;26970;49.900;10.774;2023-06-10T07:31:06;9.00;;;7.18;;
39502;SDS011;26970;49.900;10.774;2023-06-10T07:33:32;10.23;;;7.38;;
39502;SDS011;26970;49.900;10.774;2023-06-10T07:35:58;9.52;;;6.97;;
39502;SDS011;26970;49.900;10.774;2023-06-10T07:38:24;10.43;;;7.40;;
39502;SDS011;26970;49.900;10.774;2023-06-10T07:40:50;8.38;;;6.78;;
39502;SDS011;26970;49.900;10.774;2023-06-10T07:43:16;9.70;;;7.53;;
39502;SDS011;26970;49.900;10.774;2023-06-10T07:45:42;12.15;;;7.38;;
39502;SDS011;26970;49.900;10.774;2023-06-10T07:48:08;8.20;;;6.97;;
39502;SDS011;26970;49.900;10.774;2023-06-10T07:50:34;10.25;;;6.93;;
39502;SDS011;26970;49.900;10.774;2023-06-10T07:52:59;8.95;;;7.47;;
39502;SDS011;26970;49.900;10.774;2023-06-10T07:55:25;12.07;;;6.88;;
39502;SDS011;26970;49.900;10.774;2023-06-10T07:57:51;8.40;;;6.47;;
39502;SDS011;26970;49.900;10.774;2023-06-10T08:00:17;10.15;;;6.47;;
39502;SDS011;26970;49.900;10.774;2023-06-10T08:02:43;9.63;;;6.30;;
39502;SDS011;26970;49.900;10.774;2023-06-10T08:05:09;8.50;;;6.57;;
39502;SDS011;26970;49.900;10.774;2023-06-10T08:07:34;7.75;;;6.15;;
39502;SDS011;26970;49.900;10.774;2023-06-10T08:10:00;8.98;;;6.05;;
39502;SDS011;26970;49.900;10.774;2023-06-10T08:12:29;8.52;;;6.82;;
39502;SDS011;26970;49.900;10.774;2023-06-10T08:14:55;9.43;;;6.15;;
39502;SDS011;26970;49.900;10.774;2023-06-10T08:17:21;8.75;;;5.30;;
39502;SDS011;26970;49.900;10.774;2023-06-10T08:19:47;8.73;;;5.57;;
39502;SDS011;26970;49.900;10.774;2023-06-10T08:22:12;5.97;;;4.30;;
39502;SDS011;26970;49.900;10.774;2023-06-10T08:24:38;6.53;;;4.63;;
39502;SDS011;26970;49.900;10.774;2023-06-10T08:27:03;5.85;;;4.45;;
39502;SDS011;26970;49.900;10.774;2023-06-10T08:29:30;6.88;;;5.05;;
39502;SDS011;26970;49.900;10.774;2023-06-10T08:31:56;6.15;;;4.93;;
39502;SDS011;26970;49.900;10.774;2023-06-10T08:34:22;6.22;;;4.65;;
39502;SDS011;26970;49.900;10.774;2023-06-10T08:36:48;7.35;;;4.43;;
39502;SDS011;26970;49.900;10.774;2023-06-10T08:39:18;12.15;;;4.93;;
39502;SDS011;26970;49.900;10.774;2023-06-10T08:41:44;6.60;;;4.07;;
39502;SDS011;26970;49.900;10.774;2023-06-10T08:44:29;6.47;;;4.30;;
39502;SDS011;26970;49.900;10.774;2023-06-10T08:46:55;4.70;;;3.75;;
39502;SDS011;26970;49.900;10.774;2023-06-10T08:49:24;5.13;;;3.78;;
39502;SDS011;26970;49.900;10.774;2023-06-10T08:51:51;6.05;;;4.15;;
39502;SDS011;26970;49.900;10.774;2023-06-10T08:54:24;6.43;;;4.45;;
39502;SDS011;26970;49.900;10.774;2023-06-10T08:56:52;6.88;;;4.13;;
39502;SDS011;26970;49.900;10.774;2023-06-10T08:59:20;6.47;;;4.20;;
39502;SDS011;26970;49.900;10.774;2023-06-10T09:01:46;5.82;;;3.97;;
39502;SDS011;26970;49.900;10.774;2023-06-10T09:04:13;7.45;;;4.85;;
39502;SDS011;26970;49.900;10.774;2023-06-10T09:06:39;6.18;;;3.85;;
39502;SDS011;26970;49.900;10.774;2023-06-10T09:09:06;5.68;;;4.28;;
39502;SDS011;26970;49.900;10.774;2023-06-10T09:11:32;7.10;;;4.63;;
39502;SDS011;26970;49.900;10.774;2023-06-10T09:13:58;10.43;;;4.63;;
39502;SDS011;26970;49.900;10.774;2023-06-10T09:16:24;5.53;;;4.18;;
39502;SDS011;26970;49.900;10.774;2023-06-10T09:18:50;11.15;;;4.60;;
39502;SDS011;26970;49.900;10.774;2023-06-10T09:21:20;6.88;;;4.47;;
39502;SDS011;26970;49.900;10.774;2023-06-10T09:23:49;4.72;;;3.55;;
39502;SDS011;26970;49.900;10.774;2023-06-10T09:26:16;6.07;;;4.20;;
39502;SDS011;26970;49.900;10.774;2023-06-10T09:28:48;7.55;;;4.20;;
39502;SDS011;26970;49.900;10.774;2023-06-10T09:31:15;5.35;;;4.00;;
39502;SDS011;26970;49.900;10.774;2023-06-10T09:33:43;5.32;;;4.28;;
39502;SDS011;26970;49.900;10.774;2023-06-10T09:36:10;6.60;;;3.85;;
39502;SDS011;26970;49.900;10.774;2023-06-10T09:38:36;5.15;;;4.18;;
39502;SDS011;26970;49.900;10.774;2023-06-10T09:41:02;5.50;;;3.72;;
39502;SDS011;26970;49.900;10.774;2023-06-10T09:43:38;7.03;;;3.90;;
39502;SDS011;26970;49.900;10.774;2023-06-10T09:46:05;5.85;;;4.10;;
39502;SDS011;26970;49.900;10.774;2023-06-10T09:48:34;5.57;;;3.75;;
39502;SDS011;26970;49.900;10.774;2023-06-10T09:51:08;6.78;;;4.53;;
39502;SDS011;26970;49.900;10.774;2023-06-10T09:53:40;5.20;;;3.90;;
39502;SDS011;26970;49.900;10.774;2023-06-10T09:56:11;5.03;;;3.78;;
39502;SDS011;26970;49.900;10.774;2023-06-10T09:58:37;6.22;;;4.50;;
39502;SDS011;26970;49.900;10.774;2023-06-10T10:01:10;8.02;;;3.88;;
39502;SDS011;26970;49.900;10.774;2023-06-10T10:03:44;5.55;;;3.33;;
39502;SDS011;26970;49.900;10.774;2023-06-10T10:06:17;7.80;;;3.97;;
39502;SDS011;26970;49.900;10.774;2023-06-10T10:08:44;4.93;;;3.72;;
39502;SDS011;26970;49.900;10.774;2023-06-10T10:11:10;6.70;;;3.78;;
39502;SDS011;26970;49.900;10.774;2023-06-10T10:13:36;5.30;;;3.85;;
39502;SDS011;26970;49.900;10.774;2023-06-10T10:16:22;5.63;;;3.78;;
39502;SDS011;26970;49.900;10.774;2023-06-10T10:19:01;8.65;;;4.20;;
39502;SDS011;26970;49.900;10.774;2023-06-10T10:21:35;6.72;;;3.25;;
39502;SDS011;26970;49.900;10.774;2023-06-10T10:24:09;5.35;;;3.80;;
39502;SDS011;26970;49.900;10.774;2023-06-10T10:26:45;4.53;;;3.40;;
39502;SDS011;26970;49.900;10.774;2023-06-10T10:29:17;6.20;;;3.35;;
39502;SDS011;26970;49.900;10.774;2023-06-10T10:31:50;4.82;;;3.63;;
39502;SDS011;26970;49.900;10.774;2023-06-10T10:34:19;5.63;;;3.90;;
39502;SDS011;26970;49.900;10.774;2023-06-10T10:36:51;7.05;;;3.78;;
39502;SDS011;26970;49.900;10.774;2023-06-10T10:39:17;6.88;;;3.80;;
39502;SDS011;26970;49.900;10.774;2023-06-10T10:41:43;5.25;;;3.50;;
39502;SDS011;26970;49.900;10.774;2023-06-10T10:44:10;7.90;;;3.70;;
39502;SDS011;26970;49.900;10.774;2023-06-10T10:46:49;6.22;;;3.88;;
39502;SDS011;26970;49.900;10.774;2023-06-10T10:49:16;6.28;;;3.85;;
39502;SDS011;26970;49.900;10.774;2023-06-10T10:51:58;5.03;;;3.97;;
39502;SDS011;26970;49.900;10.774;2023-06-10T10:54:30;7.97;;;3.97;;
39502;SDS011;26970;49.900;10.774;2023-06-10T10:57:11;5.30;;;3.75;;
39502;SDS011;26970;49.900;10.774;2023-06-10T10:59:55;6.85;;;4.00;;
39502;SDS011;26970;49.900;10.774;2023-06-10T11:02:34;4.68;;;3.58;;
39502;SDS011;26970;49.900;10.774;2023-06-10T11:05:08;5.43;;;4.00;;
39502;SDS011;26970;49.900;10.774;2023-06-10T11:07:52;5.63;;;4.05;;
39502;SDS011;26970;49.900;10.774;2023-06-10T11:10:32;5.28;;;3.50;;
39502;SDS011;26970;49.900;10.774;2023-06-10T11:12:58;5.40;;;3.78;;
39502;SDS011;26970;49.900;10.774;2023-06-10T11:15:26;5.72;;;4.10;;
39502;SDS011;26970;49.900;10.774;2023-06-10T11:23:24;7.47;;;3.90;;
39502;SDS011;26970;49.900;10.774;2023-06-10T11:29:01;4.38;;;3.75;;
39502;SDS011;26970;49.900;10.774;2023-06-10T11:31:38;7.40;;;3.92;;
39502;SDS011;26970;49.900;10.774;2023-06-10T11:34:09;8.65;;;3.80;;
39502;SDS011;26970;49.900;10.774;2023-06-10T11:36:39;4.47;;;3.55;;
39502;SDS011;26970;49.900;10.774;2023-06-10T11:39:07;4.97;;;3.63;;
39502;SDS011;26970;49.900;10.774;2023-06-10T11:41:34;4.95;;;3.97;;
39502;SDS011;26970;49.900;10.774;2023-06-10T11:44:01;5.97;;;4.20;;
39502;SDS011;26970;49.900;10.774;2023-06-10T11:46:28;4.32;;;3.30;;
39502;SDS011;26970;49.900;10.774;2023-06-10T11:48:58;4.82;;;3.47;;
39502;SDS011;26970;49.900;10.774;2023-06-10T11:51:37;4.97;;;3.40;;
39502;SDS011;26970;49.900;10.774;2023-06-10T11:54:05;7.78;;;3.38;;
39502;SDS011;26970;49.900;10.774;2023-06-10T11:56:33;4.80;;;3.70;;
39502;SDS011;26970;49.900;10.774;2023-06-10T11:59:00;5.35;;;3.53;;
39502;SDS011;26970;49.900;10.774;2023-06-10T12:01:32;4.53;;;3.22;;
39502;SDS011;26970;49.900;10.774;2023-06-10T12:04:07;4.53;;;3.28;;
39502;SDS011;26970;49.900;10.774;2023-06-10T12:09:24;4.95;;;3.53;;
39502;SDS011;26970;49.900;10.774;2023-06-10T12:11:58;8.85;;;3.92;;
39502;SDS011;26970;49.900;10.774;2023-06-10T12:19:58;4.40;;;3.42;;
39502;SDS011;26970;49.900;10.774;2023-06-10T12:22:24;5.18;;;3.53;;
39502;SDS011;26970;49.900;10.774;2023-06-10T12:24:57;5.15;;;3.60;;
39502;SDS011;26970;49.900;10.774;2023-06-10T12:27:24;4.53;;;3.20;;
39502;SDS011;26970;49.900;10.774;2023-06-10T12:29:51;4.13;;;3.10;;
39502;SDS011;26970;49.900;10.774;2023-06-10T12:32:20;4.80;;;2.90;;
39502;SDS011;26970;49.900;10.774;2023-06-10T12:35:05;4.35;;;3.17;;
39502;SDS011;26970;49.900;10.774;2023-06-10T12:37:37;8.77;;;4.57;;
39502;SDS011;26970;49.900;10.774;2023-06-10T12:42:35;5.18;;;3.17;;
39502;SDS011;26970;49.900;10.774;2023-06-10T12:45:02;5.72;;;3.22;;
39502;SDS011;26970;49.900;10.774;2023-06-10T12:47:35;6.43;;;3.40;;
39502;SDS011;26970;49.900;10.774;2023-06-10T12:50:05;9.38;;;3.20;;
39502;SDS011;26970;49.900;10.774;2023-06-10T12:52:42;3.78;;;2.95;;
39502;SDS011;26970;49.900;10.774;2023-06-10T12:55:25;4.40;;;3.30;;
39502;SDS011;26970;49.900;10.774;2023-06-10T12:57:51;5.78;;;3.33;;
39502;SDS011;26970;49.900;10.774;2023-06-10T13:00:25;4.10;;;3.28;;
39502;SDS011;26970;49.900;10.774;2023-06-10T13:02:54;7.25;;;3.13;;
39502;SDS011;26970;49.900;10.774;2023-06-10T13:05:25;4.82;;;3.50;;
39502;SDS011;26970;49.900;10.774;2023-06-10T13:07:58;5.05;;;3.50;;
39502;SDS011;26970;49.900;10.774;2023-06-10T13:10:27;6.25;;;3.75;;
39502;SDS011;26970;49.900;10.774;2023-06-10T13:12:55;5.07;;;3.60;;
39502;SDS011;26970;49.900;10.774;2023-06-10T13:15:29;6.47;;;3.90;;
39502;SDS011;26970;49.900;10.774;2023-06-10T13:17:55;4.82;;;3.75;;
39502;SDS011;26970;49.900;10.774;2023-06-10T13:20:20;6.40;;;3.00;;
39502;SDS011;26970;49.900;10.774;2023-06-10T13:22:54;4.75;;;3.05;;
39502;SDS011;26970;49.900;10.774;2023-06-10T13:25:22;6.57;;;4.00;;
39502;SDS011;26970;49.900;10.774;2023-06-10T13:27:53;6.88;;;3.75;;
39502;SDS011;26970;49.900;10.774;2023-06-10T13:30:20;8.63;;;3.97;;
39502;SDS011;26970;49.900;10.774;2023-06-10T13:32:46;5.95;;;4.07;;
39502;SDS011;26970;49.900;10.774;2023-06-10T13:35:11;6.97;;;4.30;;
39502;SDS011;26970;49.900;10.774;2023-06-10T13:37:37;9.52;;;4.70;;
39502;SDS011;26970;49.900;10.774;2023-06-10T13:40:03;6.95;;;4.97;;
39502;SDS011;26970;49.900;10.774;2023-06-10T13:42:29;13.43;;;5.57;;
39502;SDS011;26970;49.900;10.774;2023-06-10T13:45:07;10.85;;;5.90;;
39502;SDS011;26970;49.900;10.774;2023-06-10T13:47:34;10.35;;;6.05;;
39502;SDS011;26970;49.900;10.774;2023-06-10T13:50:07;9.45;;;5.32;;
39502;SDS011;26970;49.900;10.774;2023-06-10T13:52:39;7.90;;;5.75;;
39502;SDS011;26970;49.900;10.774;2023-06-10T13:55:08;8.98;;;5.10;;
39502;SDS011;26970;49.900;10.774;2023-06-10T13:57:34;8.82;;;5.85;;
39502;SDS011;26970;49.900;10.774;2023-06-10T14:00:00;7.55;;;6.30;;
39502;SDS011;26970;49.900;10.774;2023-06-10T14:02:33;6.30;;;5.47;;
39502;SDS011;26970;49.900;10.774;2023-06-10T14:05:12;8.50;;;6.15;;
39502;SDS011;26970;49.900;10.774;2023-06-10T14:07:40;8.65;;;5.88;;
39502;SDS011;26970;49.900;10.774;2023-06-10T14:10:20;8.90;;;7.10;;
39502;SDS011;26970;49.900;10.774;2023-06-10T14:12:49;8.48;;;6.65;;
39502;SDS011;26970;49.900;10.774;2023-06-10T14:15:26;9.05;;;6.85;;
39502;SDS011;26970;49.900;10.774;2023-06-10T14:17:55;11.00;;;7.15;;
39502;SDS011;26970;49.900;10.774;2023-06-10T14:22:56;7.93;;;6.95;;
39502;SDS011;26970;49.900;10.774;2023-06-10T14:25:23;7.25;;;6.30;;
39502;SDS011;26970;49.900;10.774;2023-06-10T14:27:58;7.05;;;5.95;;
39502;SDS011;26970;49.900;10.774;2023-06-10T14:30:24;9.20;;;6.03;;
39502;SDS011;26970;49.900;10.774;2023-06-10T14:32:49;9.18;;;6.30;;
39502;SDS011;26970;49.900;10.774;2023-06-10T14:35:15;8.32;;;6.28;;
39502;SDS011;26970;49.900;10.774;2023-06-10T14:37:41;10.38;;;7.10;;
39502;SDS011;26970;49.900;10.774;2023-06-10T14:40:06;10.07;;;7.45;;
39502;SDS011;26970;49.900;10.774;2023-06-10T14:42:32;8.48;;;6.88;;
39502;SDS011;26970;49.900;10.774;2023-06-10T14:44:58;12.90;;;7.93;;
39502;SDS011;26970;49.900;10.774;2023-06-10T14:47:28;8.85;;;7.93;;
39502;SDS011;26970;49.900;10.774;2023-06-10T14:49:54;12.23;;;8.60;;
39502;SDS011;26970;49.900;10.774;2023-06-10T14:52:20;11.40;;;8.60;;
39502;SDS011;26970;49.900;10.774;2023-06-10T14:54:45;10.60;;;8.52;;
39502;SDS011;26970;49.900;10.774;2023-06-10T14:57:14;12.30;;;8.75;;
39502;SDS011;26970;49.900;10.774;2023-06-10T14:59:43;9.82;;;7.07;;